Airfield :
LOGIN :

Register | Disclaimer

   EN    FR    IT 

 










Legend :    VFR   Marginal VFR   IFR   Intensive IFR   Very Intensive IFR
Visi :
Ceiling :
>= 8 km
>= 3000ft
5 to 8 km
1000 to 3000 ft
1500m to 5 km
500 to 1000 ft
800 to 1500m
200 to 500 ft
< 800m
< 200 ft
Symbols :   Thunderstorms  Fog  Heavy snow  Heavy precipitations  Wind > 20 kt
SIGMETs :     Misc.  Thunderstorms  Icing  Turbulence  Mountain Waves  Volcanic Ashes






- Airport Elevation : 27 ft
- IATA code : PMI


LEPA - Palma de Mallorca

CURRENT METAR :
  • 061430Z 22006KT 9999 FEW020 17/14 Q1021 NOSIG

EXPIRED METARs :
  • 061400Z 05003KT 340V100 9999 FEW015 18/12 Q1021 NOSIG
  • 061330Z 07002KT 9999 FEW015 19/13 Q1021 NOSIG
  • 061300Z 14001KT 9999 FEW015 19/11 Q1022 NOSIG
  • 061230Z VRB02KT 9999 FEW015 18/12 Q1022 NOSIG
  • 061200Z 04005KT 360V080 9999 FEW015 18/13 Q1022 NOSIG

TAF TAF LEPA
Valid from the 06 at 12:00 until the 07 at 12:00 UTC


061100Z 0612/0712 VRB05KT 9999 FEW015 TX18/0613Z TN07/0707Z



MET'MAP, your aeronautical weather chart ! - Copyright ORBIFLY December 2007 - Disclaimer

ORBIFLY MET'MAP TEAM :

Programming & Development : Alexandra Zaïnal
Concept & original design : Baudouin d'Aumeries
Assistance for programming : Marc-Olivier Méhu
Technical & hardware support : Manuel Goepfert

Contact : metmap@orbifly.com




SOURCES & CREDITS :

   NOAA